createdAt,value
2019-03-16T00:01:41.112Z,11.70
2019-03-16T00:04:07.957Z,11.60
2019-03-16T00:06:34.799Z,11.60
2019-03-16T00:09:01.643Z,11.60
2019-03-16T00:11:28.490Z,11.60
2019-03-16T00:13:55.340Z,11.70
2019-03-16T00:16:22.173Z,11.60
2019-03-16T00:18:49.016Z,11.70
2019-03-16T00:21:15.859Z,11.70
2019-03-16T00:23:42.702Z,11.60
2019-03-16T00:26:09.284Z,11.60
2019-03-16T00:28:36.084Z,11.60
2019-03-16T00:31:02.926Z,11.60
2019-03-16T00:33:29.770Z,11.60
2019-03-16T00:35:56.615Z,11.60
2019-03-16T00:38:23.684Z,11.60
2019-03-16T00:40:50.607Z,11.50
2019-03-16T00:43:17.450Z,11.60
2019-03-16T00:45:45.668Z,11.60
2019-03-16T00:48:12.366Z,11.60
2019-03-16T00:50:39.209Z,11.60
2019-03-16T00:53:06.053Z,11.60
2019-03-16T00:55:32.588Z,11.60
2019-03-16T00:57:59.443Z,11.60
2019-03-16T01:00:26.277Z,11.60
2019-03-16T01:02:53.120Z,11.60
2019-03-16T01:05:19.962Z,11.60
2019-03-16T01:07:46.548Z,11.60
2019-03-16T01:10:13.649Z,11.60
2019-03-16T01:12:40.492Z,11.60
2019-03-16T01:15:08.258Z,11.60
2019-03-16T01:17:35.101Z,11.60
2019-03-16T01:20:01.946Z,11.60
2019-03-16T01:22:28.788Z,11.60
2019-03-16T01:24:55.644Z,11.60
2019-03-16T01:27:22.476Z,11.60
2019-03-16T01:29:49.319Z,11.70
2019-03-16T01:32:16.162Z,11.70
2019-03-16T01:34:44.139Z,11.80
2019-03-16T01:37:11.077Z,11.70
2019-03-16T01:39:37.924Z,11.70
2019-03-16T01:42:04.764Z,11.70
2019-03-16T01:44:31.614Z,11.60
2019-03-16T01:46:58.450Z,11.60
2019-03-16T01:49:25.295Z,11.60
2019-03-16T01:51:52.139Z,11.60
2019-03-16T01:54:18.980Z,11.50
2019-03-16T01:56:45.824Z,11.50
2019-03-16T01:59:12.404Z,11.50
2019-03-16T02:01:39.204Z,11.50
2019-03-16T02:04:05.784Z,11.40
2019-03-16T02:06:32.584Z,11.40
2019-03-16T02:08:59.427Z,11.40
2019-03-16T02:11:26.272Z,11.30
2019-03-16T02:13:53.114Z,11.30
2019-03-16T02:16:19.957Z,11.30
2019-03-16T02:18:46.801Z,11.30
2019-03-16T02:21:13.644Z,11.30
2019-03-16T02:23:40.487Z,11.20
2019-03-16T02:26:07.332Z,11.20
2019-03-16T02:28:34.174Z,11.20
2019-03-16T02:31:01.020Z,11.20
2019-03-16T02:33:27.862Z,11.10
2019-03-16T02:35:54.397Z,11.10
2019-03-16T02:38:21.243Z,11.00
2019-03-16T02:40:48.090Z,11.00
2019-03-16T02:43:14.928Z,11.00
2019-03-16T02:45:41.773Z,11.00
2019-03-16T02:48:08.615Z,11.00
2019-03-16T02:50:36.382Z,11.00
2019-03-16T02:53:03.226Z,10.90
2019-03-16T02:55:30.067Z,10.80
2019-03-16T02:57:56.909Z,10.80
2019-03-16T03:00:23.536Z,10.80
2019-03-16T03:02:50.409Z,10.70
2019-03-16T03:05:17.133Z,10.70
2019-03-16T03:07:43.976Z,10.70
2019-03-16T03:10:12.049Z,10.70
2019-03-16T03:12:38.631Z,10.70
2019-03-16T03:15:06.117Z,10.70
2019-03-16T03:17:32.886Z,10.60
2019-03-16T03:19:59.422Z,10.60
2019-03-16T03:22:25.960Z,10.60
2019-03-16T03:24:52.495Z,10.60
2019-03-16T03:27:19.340Z,10.60
2019-03-16T03:29:46.189Z,10.50
2019-03-16T03:32:13.029Z,10.50
2019-03-16T03:34:39.869Z,10.40
2019-03-16T03:37:06.712Z,10.40
2019-03-16T03:39:33.558Z,10.40
2019-03-16T03:42:00.196Z,10.40
2019-03-16T03:44:26.935Z,10.30
2019-03-16T03:46:53.786Z,10.30
2019-03-16T03:49:20.623Z,10.30
2019-03-16T03:51:47.773Z,10.20
2019-03-16T03:54:14.617Z,10.20
2019-03-16T03:56:41.250Z,10.20
2019-03-16T03:59:07.937Z,10.20
2019-03-16T04:01:34.532Z,10.20
2019-03-16T04:04:14.184Z,10.20
2019-03-16T04:06:29.448Z,10.20
2019-03-16T04:08:56.291Z,10.20
2019-03-16T04:11:23.166Z,10.20
2019-03-16T04:13:49.991Z,10.20
2019-03-16T04:16:16.823Z,10.20
2019-03-16T04:18:43.665Z,10.10
2019-03-16T04:21:10.508Z,10.10
2019-03-16T04:23:37.352Z,10.10
2019-03-16T04:26:04.196Z,10.00
2019-03-16T04:28:31.040Z,10.00
2019-03-16T04:30:57.882Z,9.90
2019-03-16T04:33:24.725Z,10.00
2019-03-16T04:35:51.569Z,10.00
2019-03-16T04:38:18.415Z,10.00
2019-03-16T04:40:44.993Z,9.90
2019-03-16T04:43:11.791Z,9.90
2019-03-16T04:45:38.635Z,9.90
2019-03-16T04:48:05.477Z,9.90
2019-03-16T04:50:32.323Z,9.90
2019-03-16T04:52:59.166Z,10.00
2019-03-16T04:55:26.018Z,10.00
2019-03-16T04:57:52.852Z,10.10
2019-03-16T05:00:19.700Z,10.10
2019-03-16T05:02:46.539Z,10.20
2019-03-16T05:05:13.395Z,10.20
2019-03-16T05:07:39.964Z,10.20
2019-03-16T05:10:08.011Z,10.20
2019-03-16T05:12:34.835Z,10.20
2019-03-16T05:15:01.678Z,10.20
2019-03-16T05:17:28.521Z,10.30
2019-03-16T05:19:55.377Z,10.30
2019-03-16T05:22:22.208Z,10.30
2019-03-16T05:24:49.052Z,10.20
2019-03-16T05:27:15.894Z,10.30
2019-03-16T05:29:42.738Z,10.30
2019-03-16T05:32:09.582Z,10.20
2019-03-16T05:34:36.120Z,10.20
2019-03-16T05:37:02.704Z,10.20
2019-03-16T05:39:29.239Z,10.20
2019-03-16T05:41:56.047Z,10.20
2019-03-16T05:44:22.881Z,10.20
2019-03-16T05:46:49.720Z,10.20
2019-03-16T05:49:16.256Z,10.20
2019-03-16T05:51:43.102Z,10.20
2019-03-16T05:54:09.943Z,10.20
2019-03-16T05:56:36.786Z,10.20
2019-03-16T05:59:03.323Z,10.20
2019-03-16T06:01:29.859Z,10.10
2019-03-16T06:03:56.702Z,10.10
2019-03-16T06:06:23.288Z,10.10
2019-03-16T06:08:50.082Z,10.10
2019-03-16T06:11:16.925Z,10.00
2019-03-16T06:13:43.775Z,10.00
2019-03-16T06:16:10.612Z,10.00
2019-03-16T06:18:37.455Z,10.00
2019-03-16T06:21:04.306Z,10.00
2019-03-16T06:23:31.142Z,10.10
2019-03-16T06:25:57.989Z,10.10
2019-03-16T06:28:24.830Z,10.10
2019-03-16T06:30:51.672Z,10.10
2019-03-16T06:33:18.516Z,10.20
2019-03-16T06:35:45.096Z,10.20
2019-03-16T06:38:11.680Z,10.30
2019-03-16T06:40:38.433Z,10.30
2019-03-16T06:43:05.279Z,10.40
2019-03-16T06:45:32.120Z,10.40
2019-03-16T06:47:58.962Z,10.40
2019-03-16T06:50:25.547Z,10.40
2019-03-16T06:52:52.341Z,10.40
2019-03-16T06:55:19.186Z,10.40
2019-03-16T06:57:46.029Z,10.40
2019-03-16T07:00:16.296Z,10.40
2019-03-16T07:02:43.101Z,10.30
2019-03-16T07:05:10.859Z,10.10
2019-03-16T07:07:37.722Z,10.00
2019-03-16T07:10:06.399Z,10.00
2019-03-16T07:12:34.834Z,10.00
2019-03-16T07:15:01.306Z,9.90
2019-03-16T07:17:28.071Z,9.90
2019-03-16T07:19:54.685Z,9.90
2019-03-16T07:22:21.528Z,9.90
2019-03-16T07:24:51.425Z,9.90
2019-03-16T07:27:25.698Z,9.90
2019-03-16T07:29:44.823Z,9.80
2019-03-16T07:32:11.667Z,9.90
2019-03-16T07:34:38.248Z,9.90
2019-03-16T07:37:05.046Z,9.90
2019-03-16T07:39:31.889Z,9.90
2019-03-16T07:42:00.545Z,9.80
2019-03-16T07:44:26.808Z,9.80
2019-03-16T07:46:53.651Z,9.70
2019-03-16T07:49:20.493Z,9.70
2019-03-16T07:51:47.336Z,9.70
2019-03-16T07:54:14.186Z,9.80
2019-03-16T07:56:41.023Z,9.70
2019-03-16T07:59:07.866Z,9.80
2019-03-16T08:01:34.711Z,9.90
2019-03-16T08:04:01.292Z,10.00
2019-03-16T08:06:28.088Z,10.00
2019-03-16T08:08:54.677Z,10.00
2019-03-16T08:11:21.471Z,10.10
2019-03-16T08:13:48.314Z,10.20
2019-03-16T08:16:15.202Z,10.20
2019-03-16T08:18:42.003Z,10.20
2019-03-16T08:21:08.843Z,10.30
2019-03-16T08:23:35.686Z,10.30
2019-03-16T08:26:02.530Z,10.30
2019-03-16T08:28:29.372Z,10.30
2019-03-16T08:30:56.954Z,10.30
2019-03-16T08:33:23.674Z,10.40
2019-03-16T08:35:50.517Z,10.50
2019-03-16T08:38:17.361Z,10.50
2019-03-16T08:40:44.203Z,10.50
2019-03-16T08:43:11.048Z,10.60
2019-03-16T08:45:37.891Z,10.50
2019-03-16T08:48:04.428Z,10.60
2019-03-16T08:50:31.270Z,10.60
2019-03-16T08:52:58.114Z,10.70
2019-03-16T08:55:24.957Z,10.70
2019-03-16T08:57:51.800Z,10.80
2019-03-16T09:00:18.644Z,10.90
2019-03-16T09:02:45.488Z,11.00
2019-03-16T09:05:12.330Z,11.20
2019-03-16T09:07:39.175Z,11.30
2019-03-16T09:10:06.676Z,11.40
2019-03-16T09:12:33.476Z,11.60
2019-03-16T09:15:00.370Z,11.70
2019-03-16T09:17:27.162Z,11.70
2019-03-16T09:19:54.009Z,11.80
2019-03-16T09:22:20.849Z,11.90
2019-03-16T09:24:47.692Z,12.00
2019-03-16T09:27:14.537Z,12.10
2019-03-16T09:29:41.379Z,12.30
2019-03-16T09:32:07.960Z,12.30
2019-03-16T09:34:34.760Z,12.50
2019-03-16T09:37:01.603Z,12.50
2019-03-16T09:39:28.187Z,12.40
2019-03-16T09:41:54.984Z,12.50
2019-03-16T09:44:21.825Z,12.60
2019-03-16T09:46:48.669Z,12.70
2019-03-16T09:49:15.514Z,12.70
2019-03-16T09:51:42.358Z,12.80
2019-03-16T09:54:09.264Z,12.90
2019-03-16T09:56:36.044Z,12.90
2019-03-16T09:59:02.885Z,12.80
2019-03-16T10:01:29.734Z,12.90
2019-03-16T10:03:56.312Z,13.20
2019-03-16T10:06:23.108Z,13.20
2019-03-16T10:08:49.952Z,13.20
2019-03-16T10:11:16.797Z,13.30
2019-03-16T10:13:43.639Z,13.40
2019-03-16T10:16:10.482Z,13.50
2019-03-16T10:18:37.330Z,13.70
2019-03-16T10:21:04.168Z,13.80
2019-03-16T10:23:31.014Z,13.80
2019-03-16T10:25:57.596Z,13.80
2019-03-16T10:28:24.398Z,13.90
2019-03-16T10:30:51.241Z,14.10
2019-03-16T10:33:18.091Z,14.20
2019-03-16T10:35:44.925Z,14.30
2019-03-16T10:38:11.766Z,14.40
2019-03-16T10:40:38.348Z,14.50
2019-03-16T10:43:05.146Z,14.60
2019-03-16T10:45:31.728Z,14.60
2019-03-16T10:47:58.264Z,14.60
2019-03-16T10:50:24.800Z,14.70
2019-03-16T10:52:51.597Z,14.80
2019-03-16T10:55:18.440Z,14.80
2019-03-16T10:57:45.024Z,15.00
2019-03-16T11:00:12.436Z,15.00
2019-03-16T11:02:39.278Z,15.00
2019-03-16T11:05:06.123Z,15.10
2019-03-16T11:07:32.966Z,15.10
2019-03-16T11:09:59.808Z,15.20
2019-03-16T11:12:26.651Z,15.30
2019-03-16T11:14:53.495Z,15.30
2019-03-16T11:17:20.076Z,15.30
2019-03-16T11:19:46.613Z,15.30
2019-03-16T11:22:13.415Z,15.40
2019-03-16T11:24:40.255Z,15.50
2019-03-16T11:27:07.098Z,15.60
2019-03-16T11:29:33.680Z,15.80
2019-03-16T11:32:00.476Z,15.90
2019-03-16T11:34:27.060Z,16.00
2019-03-16T11:36:53.858Z,16.00
2019-03-16T11:39:20.444Z,16.10
2019-03-16T11:41:46.977Z,16.20
2019-03-16T11:44:13.772Z,16.20
2019-03-16T11:46:40.615Z,16.20
2019-03-16T11:49:07.201Z,16.50
2019-03-16T11:51:33.996Z,16.70
2019-03-16T11:54:00.838Z,16.80
2019-03-16T11:56:27.686Z,16.80
2019-03-16T11:58:54.527Z,16.80
2019-03-16T12:01:21.369Z,16.80
2019-03-16T12:03:48.215Z,16.90
2019-03-16T12:06:15.056Z,16.90
2019-03-16T12:08:41.900Z,17.10
2019-03-16T12:11:08.562Z,17.30
2019-03-16T12:13:35.279Z,17.50
2019-03-16T12:16:02.126Z,17.70
2019-03-16T12:18:28.971Z,17.90
2019-03-16T12:20:55.547Z,18.00
2019-03-16T12:23:22.347Z,17.90
2019-03-16T12:25:49.191Z,17.50
2019-03-16T12:28:15.768Z,17.30
2019-03-16T12:30:42.309Z,17.50
2019-03-16T12:33:08.845Z,17.70
2019-03-16T12:35:35.342Z,17.80
2019-03-16T12:38:01.870Z,17.90
2019-03-16T12:40:28.714Z,18.20
2019-03-16T12:42:55.297Z,18.30
2019-03-16T12:45:22.093Z,18.40
2019-03-16T12:47:48.937Z,18.30
2019-03-16T12:50:15.516Z,18.40
2019-03-16T12:52:42.316Z,18.40
2019-03-16T12:55:10.695Z,18.40
2019-03-16T12:57:37.538Z,18.40
2019-03-16T13:00:11.184Z,18.60
2019-03-16T13:02:37.983Z,18.60
2019-03-16T13:05:05.135Z,18.80
2019-03-16T13:07:31.743Z,19.00
2019-03-16T13:09:58.513Z,19.20
2019-03-16T13:12:25.372Z,19.40
2019-03-16T13:14:51.940Z,19.30
2019-03-16T13:17:18.742Z,19.20
2019-03-16T13:19:45.584Z,19.40
2019-03-16T13:22:12.427Z,19.50
2019-03-16T13:24:39.271Z,19.70
2019-03-16T13:27:06.111Z,19.80
2019-03-16T13:29:32.693Z,19.80
2019-03-16T13:31:59.492Z,19.80
2019-03-16T13:34:26.354Z,19.80
2019-03-16T13:36:52.911Z,19.90
2019-03-16T13:39:22.437Z,19.80
2019-03-16T13:41:47.785Z,19.80
2019-03-16T13:44:14.628Z,19.80
2019-03-16T13:46:41.471Z,19.80
2019-03-16T13:49:08.315Z,20.00
2019-03-16T13:51:35.158Z,20.10
2019-03-16T13:54:02.002Z,20.20
2019-03-16T13:56:28.845Z,19.90
2019-03-16T13:58:55.689Z,19.90
2019-03-16T14:01:22.225Z,20.00
2019-03-16T14:03:49.068Z,20.40
2019-03-16T14:06:15.911Z,20.60
2019-03-16T14:08:42.754Z,20.60
2019-03-16T14:11:09.598Z,20.50
2019-03-16T14:13:36.446Z,20.70
2019-03-16T14:16:03.619Z,20.90
2019-03-16T14:18:30.436Z,21.10
2019-03-16T14:20:57.280Z,21.20
2019-03-16T14:23:24.122Z,21.40
2019-03-16T14:25:50.966Z,21.40
2019-03-16T14:28:18.116Z,21.60
2019-03-16T14:30:45.286Z,21.50
2019-03-16T14:33:12.111Z,21.50
2019-03-16T14:35:38.954Z,21.60
2019-03-16T14:38:05.802Z,21.60
2019-03-16T14:40:32.419Z,21.60
2019-03-16T14:42:59.178Z,21.60
2019-03-16T14:45:26.635Z,21.50
2019-03-16T14:47:53.218Z,21.60
2019-03-16T14:50:20.938Z,21.80
2019-03-16T14:52:47.520Z,21.70
2019-03-16T14:55:14.318Z,21.60
2019-03-16T14:57:41.164Z,21.60
2019-03-16T15:00:09.585Z,21.60
2019-03-16T15:02:36.385Z,21.80
2019-03-16T15:05:03.885Z,21.90
2019-03-16T15:07:30.683Z,22.00
2019-03-16T15:09:57.527Z,21.90
2019-03-16T15:12:24.109Z,22.20
2019-03-16T15:14:50.907Z,22.90
2019-03-16T15:17:17.752Z,26.30
2019-03-16T15:19:44.294Z,28.60
2019-03-16T15:22:12.135Z,30.20
2019-03-16T15:24:39.202Z,31.20
2019-03-16T15:27:06.044Z,31.90
2019-03-16T15:29:32.887Z,32.50
2019-03-16T15:31:59.468Z,32.70
2019-03-16T15:34:26.267Z,32.20
2019-03-16T15:36:53.111Z,31.60
2019-03-16T15:39:19.956Z,31.70
2019-03-16T15:41:46.798Z,31.80
2019-03-16T15:44:13.641Z,31.20
2019-03-16T15:46:40.485Z,30.80
2019-03-16T15:49:07.329Z,30.00
2019-03-16T15:51:34.173Z,29.90
2019-03-16T15:54:00.752Z,29.60
2019-03-16T15:56:27.870Z,28.70
2019-03-16T15:58:54.701Z,28.20
2019-03-16T16:01:21.288Z,28.00
2019-03-16T16:03:48.081Z,27.50
2019-03-16T16:06:14.924Z,26.80
2019-03-16T16:08:42.996Z,26.20
2019-03-16T16:11:09.533Z,25.60
2019-03-16T16:13:36.379Z,25.00
2019-03-16T16:16:03.221Z,24.50
2019-03-16T16:18:30.065Z,23.60
2019-03-16T16:20:56.909Z,23.10
2019-03-16T16:23:23.753Z,22.60
2019-03-16T16:25:50.593Z,22.20
2019-03-16T16:28:17.438Z,21.90
2019-03-16T16:30:44.280Z,21.60
2019-03-16T16:33:11.124Z,21.20
2019-03-16T16:35:37.966Z,21.00
2019-03-16T16:38:04.812Z,20.70
2019-03-16T16:40:31.654Z,20.50
2019-03-16T16:42:58.497Z,20.40
2019-03-16T16:45:25.341Z,20.10
2019-03-16T16:47:52.189Z,19.90
2019-03-16T16:50:19.643Z,19.80
2019-03-16T16:52:46.485Z,19.70
2019-03-16T16:55:13.636Z,19.60
2019-03-16T16:57:40.485Z,19.50
2019-03-16T17:00:12.145Z,19.40
2019-03-16T17:02:38.775Z,19.20
2019-03-16T17:05:05.616Z,19.10
2019-03-16T17:07:32.768Z,18.90
2019-03-16T17:09:59.613Z,18.80
2019-03-16T17:12:26.455Z,18.60
2019-03-16T17:14:53.299Z,18.50
2019-03-16T17:17:20.144Z,18.30
2019-03-16T17:19:46.984Z,18.20
2019-03-16T17:22:13.828Z,18.00
2019-03-16T17:24:40.407Z,17.80
2019-03-16T17:27:07.207Z,17.70
2019-03-16T17:29:34.051Z,17.60
2019-03-16T17:32:00.895Z,17.40
2019-03-16T17:34:27.743Z,17.10
2019-03-16T17:36:54.275Z,16.90
2019-03-16T17:39:21.118Z,16.60
2019-03-16T17:41:47.961Z,16.50
2019-03-16T17:44:14.807Z,16.20
2019-03-16T17:46:41.649Z,15.90
2019-03-16T17:49:08.491Z,15.80
2019-03-16T17:51:35.336Z,15.50
2019-03-16T17:54:02.179Z,15.20
2019-03-16T17:56:29.946Z,15.10
2019-03-16T17:58:56.524Z,14.90
2019-03-16T18:01:23.108Z,14.60
2019-03-16T18:03:49.859Z,14.50
2019-03-16T18:06:16.702Z,14.40
2019-03-16T18:08:43.239Z,14.10
2019-03-16T18:11:10.082Z,14.00
2019-03-16T18:13:36.925Z,14.00
2019-03-16T18:16:03.770Z,13.90
2019-03-16T18:18:30.304Z,13.80
2019-03-16T18:20:57.148Z,13.80
2019-03-16T18:23:23.728Z,13.60
2019-03-16T18:25:50.530Z,13.40
2019-03-16T18:28:17.372Z,13.40
2019-03-16T18:30:44.215Z,13.40
2019-03-16T18:33:10.819Z,13.30
2019-03-16T18:35:37.594Z,13.10
2019-03-16T18:38:04.180Z,12.80
2019-03-16T18:40:30.915Z,12.70
2019-03-16T18:42:57.510Z,12.60
2019-03-16T18:45:25.285Z,12.50
2019-03-16T18:47:52.118Z,12.40
2019-03-16T18:50:18.962Z,12.40
2019-03-16T18:52:45.544Z,12.40
2019-03-16T18:55:12.341Z,12.20
2019-03-16T18:57:39.184Z,12.20
2019-03-16T19:00:07.871Z,12.30
2019-03-16T19:02:34.715Z,12.30
2019-03-16T19:05:01.561Z,12.20
2019-03-16T19:07:28.403Z,12.20
2019-03-16T19:09:55.248Z,12.10
2019-03-16T19:12:21.829Z,11.90
2019-03-16T19:14:48.626Z,11.90
2019-03-16T19:17:15.473Z,11.80
2019-03-16T19:19:42.314Z,11.70
2019-03-16T19:22:11.528Z,11.60
2019-03-16T19:24:37.228Z,11.50
2019-03-16T19:27:04.070Z,11.50
2019-03-16T19:29:30.914Z,11.30
2019-03-16T19:31:57.757Z,11.30
2019-03-16T19:34:24.601Z,11.30
2019-03-16T19:36:51.444Z,11.20
2019-03-16T19:39:18.294Z,11.10
2019-03-16T19:41:44.869Z,11.00
2019-03-16T19:44:11.408Z,10.90
2019-03-16T19:46:38.212Z,10.90
2019-03-16T19:49:06.996Z,10.80
2019-03-16T19:51:33.166Z,10.70
2019-03-16T19:53:59.964Z,10.60
2019-03-16T19:56:26.545Z,10.60
2019-03-16T19:59:00.644Z,10.50
2019-03-16T20:01:21.415Z,10.40
2019-03-16T20:03:48.258Z,10.40
2019-03-16T20:06:25.184Z,10.30
2019-03-16T20:08:43.217Z,10.20
2019-03-16T20:11:10.017Z,10.20
2019-03-16T20:13:36.863Z,10.10
2019-03-16T20:16:03.704Z,10.10
2019-03-16T20:18:30.548Z,10.00
2019-03-16T20:20:57.391Z,10.00
2019-03-16T20:23:24.234Z,9.90
2019-03-16T20:25:51.078Z,9.80
2019-03-16T20:28:17.920Z,9.60
2019-03-16T20:30:44.764Z,9.60
2019-03-16T20:33:11.349Z,9.60
2019-03-16T20:35:38.144Z,9.40
2019-03-16T20:38:04.986Z,9.40
2019-03-16T20:40:31.569Z,9.30
2019-03-16T20:42:58.367Z,9.20
2019-03-16T20:45:25.330Z,9.30
2019-03-16T20:47:52.361Z,9.30
2019-03-16T20:50:19.207Z,9.30
2019-03-16T20:52:46.048Z,9.20
2019-03-16T20:55:12.890Z,9.20
2019-03-16T20:57:39.735Z,9.00
2019-03-16T21:00:08.073Z,8.90
2019-03-16T21:02:34.650Z,8.90
2019-03-16T21:05:01.497Z,8.80
2019-03-16T21:07:28.341Z,8.70
2019-03-16T21:09:55.181Z,8.70
2019-03-16T21:12:22.026Z,8.70
2019-03-16T21:14:48.867Z,8.70
2019-03-16T21:17:15.450Z,8.60
2019-03-16T21:19:42.246Z,8.70
2019-03-16T21:22:09.090Z,8.70
2019-03-16T21:24:35.934Z,8.70
2019-03-16T21:27:02.778Z,8.70
2019-03-16T21:29:29.621Z,8.70
2019-03-16T21:31:56.463Z,8.70
2019-03-16T21:34:23.308Z,8.80
2019-03-16T21:36:49.889Z,9.00
2019-03-16T21:39:17.144Z,9.00
2019-03-16T21:41:44.491Z,8.90
2019-03-16T21:44:11.275Z,8.70
2019-03-16T21:46:37.836Z,8.70
2019-03-16T21:49:04.984Z,8.70
2019-03-16T21:51:31.529Z,8.60
2019-03-16T21:53:58.057Z,8.50
2019-03-16T21:56:24.899Z,8.50
2019-03-16T21:58:51.746Z,8.30
2019-03-16T22:01:18.280Z,8.20
2019-03-16T22:03:44.856Z,8.10
2019-03-16T22:06:11.658Z,8.20
2019-03-16T22:08:38.501Z,8.20
2019-03-16T22:11:05.481Z,7.90
2019-03-16T22:13:32.494Z,7.90
2019-03-16T22:15:59.336Z,7.80
2019-03-16T22:18:26.181Z,7.70
2019-03-16T22:20:53.027Z,7.70
2019-03-16T22:23:19.867Z,7.60
2019-03-16T22:25:46.710Z,7.50
2019-03-16T22:28:13.526Z,7.50
2019-03-16T22:30:40.090Z,7.40
2019-03-16T22:33:06.934Z,7.40
2019-03-16T22:35:33.776Z,7.40
2019-03-16T22:38:00.362Z,7.30
2019-03-16T22:40:26.901Z,7.30
2019-03-16T22:42:53.432Z,7.20
2019-03-16T22:45:20.230Z,7.10
2019-03-16T22:47:47.072Z,7.00
2019-03-16T22:50:14.268Z,7.00
2019-03-16T22:52:41.067Z,7.00
2019-03-16T22:55:09.080Z,6.90
2019-03-16T22:57:35.673Z,6.80
2019-03-16T23:00:04.054Z,6.80
2019-03-16T23:02:30.897Z,6.80
2019-03-16T23:04:57.740Z,6.80
2019-03-16T23:07:24.583Z,6.80
2019-03-16T23:09:51.429Z,6.80
2019-03-16T23:12:18.271Z,6.70
2019-03-16T23:14:45.114Z,6.70
2019-03-16T23:17:11.957Z,6.60
2019-03-16T23:19:38.800Z,6.60
2019-03-16T23:22:05.646Z,6.60
2019-03-16T23:24:32.488Z,6.60
2019-03-16T23:26:59.335Z,6.60
2019-03-16T23:29:26.175Z,6.60
2019-03-16T23:31:53.017Z,6.60
2019-03-16T23:34:19.860Z,6.60
2019-03-16T23:36:46.788Z,6.60
2019-03-16T23:39:13.547Z,6.50
2019-03-16T23:41:40.392Z,6.50
2019-03-16T23:44:06.973Z,6.60
2019-03-16T23:46:33.770Z,6.50
2019-03-16T23:49:00.614Z,6.50
2019-03-16T23:51:27.515Z,6.40
2019-03-16T23:53:54.301Z,6.40
2019-03-16T23:56:21.144Z,6.30
2019-03-16T23:58:47.728Z,6.20
